sensor_id;sensor_type;location;lat;lon;timestamp;pressure;altitude;pressure_sealevel;temperature;humidity
79067;BME280;68470;50.224;14.348;2023-06-10T00:01:58;99218.09;;;13.59;100.00
79067;BME280;68470;50.224;14.348;2023-06-10T00:04:28;99213.44;;;13.54;100.00
79067;BME280;68470;50.224;14.348;2023-06-10T00:06:54;99214.47;;;13.64;100.00
79067;BME280;68470;50.224;14.348;2023-06-10T00:09:20;99209.53;;;13.55;100.00
79067;BME280;68470;50.224;14.348;2023-06-10T00:11:47;99217.94;;;13.45;100.00
79067;BME280;68470;50.224;14.348;2023-06-10T00:14:13;99228.91;;;13.55;100.00
79067;BME280;68470;50.224;14.348;2023-06-10T00:16:39;99215.78;;;13.37;100.00
79067;BME280;68470;50.224;14.348;2023-06-10T00:19:05;99213.59;;;13.34;100.00
79067;BME280;68470;50.224;14.348;2023-06-10T00:21:33;99225.59;;;13.53;100.00
79067;BME280;68470;50.224;14.348;2023-06-10T00:24:11;99223.28;;;13.32;100.00
79067;BME280;68470;50.224;14.348;2023-06-10T00:26:40;99226.53;;;13.44;100.00
79067;BME280;68470;50.224;14.348;2023-06-10T00:29:07;99222.88;;;13.48;100.00
79067;BME280;68470;50.224;14.348;2023-06-10T00:31:34;99214.00;;;13.51;100.00
79067;BME280;68470;50.224;14.348;2023-06-10T00:34:00;99219.31;;;13.43;100.00
79067;BME280;68470;50.224;14.348;2023-06-10T00:36:26;99212.97;;;13.42;100.00
79067;BME280;68470;50.224;14.348;2023-06-10T00:38:52;99226.34;;;13.30;100.00
79067;BME280;68470;50.224;14.348;2023-06-10T00:41:18;99235.25;;;13.17;100.00
79067;BME280;68470;50.224;14.348;2023-06-10T00:43:44;99236.16;;;13.02;100.00
79067;BME280;68470;50.224;14.348;2023-06-10T00:46:14;99242.69;;;13.21;100.00
79067;BME280;68470;50.224;14.348;2023-06-10T00:48:41;99244.41;;;13.07;100.00
79067;BME280;68470;50.224;14.348;2023-06-10T00:51:09;99242.13;;;13.24;100.00
79067;BME280;68470;50.224;14.348;2023-06-10T00:53:36;99242.69;;;13.21;100.00
79067;BME280;68470;50.224;14.348;2023-06-10T00:56:04;99244.66;;;13.16;100.00
79067;BME280;68470;50.224;14.348;2023-06-10T00:58:30;99247.97;;;13.13;100.00
79067;BME280;68470;50.224;14.348;2023-06-10T01:00:57;99243.97;;;13.39;100.00
79067;BME280;68470;50.224;14.348;2023-06-10T01:03:23;99243.66;;;13.41;100.00
79067;BME280;68470;50.224;14.348;2023-06-10T01:05:59;99234.13;;;13.23;100.00
79067;BME280;68470;50.224;14.348;2023-06-10T01:09:02;99240.13;;;13.35;100.00
79067;BME280;68470;50.224;14.348;2023-06-10T01:11:41;99240.69;;;13.32;100.00
79067;BME280;68470;50.224;14.348;2023-06-10T01:14:09;99244.63;;;13.21;100.00
79067;BME280;68470;50.224;14.348;2023-06-10T01:16:35;99241.28;;;13.24;100.00
79067;BME280;68470;50.224;14.348;2023-06-10T01:19:03;99247.00;;;13.38;100.00
79067;BME280;68470;50.224;14.348;2023-06-10T01:21:29;99247.88;;;13.33;100.00
79067;BME280;68470;50.224;14.348;2023-06-10T01:23:56;99253.47;;;13.23;100.00
79067;BME280;68470;50.224;14.348;2023-06-10T01:26:28;99256.75;;;13.25;100.00
79067;BME280;68470;50.224;14.348;2023-06-10T01:29:03;99255.88;;;13.35;100.00
79067;BME280;68470;50.224;14.348;2023-06-10T01:31:49;99263.94;;;13.26;100.00
79067;BME280;68470;50.224;14.348;2023-06-10T01:34:18;99262.34;;;13.20;100.00
79067;BME280;68470;50.224;14.348;2023-06-10T01:36:46;99260.44;;;13.10;100.00
79067;BME280;68470;50.224;14.348;2023-06-10T01:39:14;99258.75;;;13.09;100.00
79067;BME280;68470;50.224;14.348;2023-06-10T01:41:42;99269.28;;;13.07;100.00
79067;BME280;68470;50.224;14.348;2023-06-10T01:44:09;99275.16;;;12.90;100.00
79067;BME280;68470;50.224;14.348;2023-06-10T01:46:35;99271.00;;;12.93;100.00
79067;BME280;68470;50.224;14.348;2023-06-10T01:49:00;99268.59;;;12.81;100.00
79067;BME280;68470;50.224;14.348;2023-06-10T01:51:27;99285.69;;;12.83;100.00
79067;BME280;68470;50.224;14.348;2023-06-10T01:53:53;99281.81;;;12.84;100.00
79067;BME280;68470;50.224;14.348;2023-06-10T01:56:19;99275.16;;;12.90;100.00
79067;BME280;68470;50.224;14.348;2023-06-10T01:58:45;99277.81;;;13.21;100.00
79067;BME280;68470;50.224;14.348;2023-06-10T02:01:11;99282.34;;;12.97;100.00
79067;BME280;68470;50.224;14.348;2023-06-10T02:03:37;99288.44;;;12.88;100.00
79067;BME280;68470;50.224;14.348;2023-06-10T02:06:04;99279.06;;;12.84;100.00
79067;BME280;68470;50.224;14.348;2023-06-10T02:08:29;99279.91;;;12.75;100.00
79067;BME280;68470;50.224;14.348;2023-06-10T02:10:56;99286.25;;;12.85;100.00
79067;BME280;68470;50.224;14.348;2023-06-10T02:13:21;99287.94;;;12.71;100.00
79067;BME280;68470;50.224;14.348;2023-06-10T02:15:47;99277.38;;;12.93;100.00
79067;BME280;68470;50.224;14.348;2023-06-10T02:18:13;99287.59;;;12.88;100.00
79067;BME280;68470;50.224;14.348;2023-06-10T02:20:39;99292.56;;;12.96;100.00
79067;BME280;68470;50.224;14.348;2023-06-10T02:23:05;99295.06;;;12.87;100.00
79067;BME280;68470;50.224;14.348;2023-06-10T02:25:31;99286.22;;;12.90;100.00
79067;BME280;68470;50.224;14.348;2023-06-10T02:27:57;99281.22;;;12.98;100.00
79067;BME280;68470;50.224;14.348;2023-06-10T02:30:23;99283.75;;;12.84;100.00
79067;BME280;68470;50.224;14.348;2023-06-10T02:32:49;99281.38;;;12.52;100.00
79067;BME280;68470;50.224;14.348;2023-06-10T02:35:17;99293.50;;;12.66;100.00
79067;BME280;68470;50.224;14.348;2023-06-10T02:37:43;99291.25;;;12.78;100.00
79067;BME280;68470;50.224;14.348;2023-06-10T02:40:10;99296.50;;;12.80;100.00
79067;BME280;68470;50.224;14.348;2023-06-10T02:42:36;99305.06;;;12.73;100.00
79067;BME280;68470;50.224;14.348;2023-06-10T02:45:03;99289.38;;;12.63;100.00
79067;BME280;68470;50.224;14.348;2023-06-10T02:47:28;99296.81;;;12.68;100.00
79067;BME280;68470;50.224;14.348;2023-06-10T02:49:56;99303.47;;;12.62;100.00
79067;BME280;68470;50.224;14.348;2023-06-10T02:52:21;99305.59;;;12.75;100.00
79067;BME280;68470;50.224;14.348;2023-06-10T02:54:48;99294.84;;;12.79;100.00
79067;BME280;68470;50.224;14.348;2023-06-10T02:57:14;99290.97;;;12.80;100.00
79067;BME280;68470;50.224;14.348;2023-06-10T02:59:40;99307.25;;;12.81;100.00
79067;BME280;68470;50.224;14.348;2023-06-10T03:02:06;99305.03;;;12.83;100.00
79067;BME280;68470;50.224;14.348;2023-06-10T03:04:33;99311.13;;;12.80;100.00
79067;BME280;68470;50.224;14.348;2023-06-10T03:06:58;99303.59;;;12.96;100.00
79067;BME280;68470;50.224;14.348;2023-06-10T03:09:29;99307.72;;;12.99;100.00
79067;BME280;68470;50.224;14.348;2023-06-10T03:11:54;99294.50;;;12.95;100.00
79067;BME280;68470;50.224;14.348;2023-06-10T03:14:21;99305.28;;;12.87;100.00
79067;BME280;68470;50.224;14.348;2023-06-10T03:16:46;99309.75;;;12.73;100.00
79067;BME280;68470;50.224;14.348;2023-06-10T03:19:12;99312.22;;;12.84;100.00
79067;BME280;68470;50.224;14.348;2023-06-10T03:21:38;99301.69;;;12.86;100.00
79067;BME280;68470;50.224;14.348;2023-06-10T03:24:04;99306.97;;;12.83;100.00
79067;BME280;68470;50.224;14.348;2023-06-10T03:26:30;99317.72;;;12.84;100.00
79067;BME280;68470;50.224;14.348;2023-06-10T03:28:56;99311.63;;;12.87;100.00
79067;BME280;68470;50.224;14.348;2023-06-10T03:31:22;99321.59;;;12.83;100.00
79067;BME280;68470;50.224;14.348;2023-06-10T03:33:50;99306.75;;;12.64;100.00
79067;BME280;68470;50.224;14.348;2023-06-10T03:36:16;99310.66;;;12.53;100.00
79067;BME280;68470;50.224;14.348;2023-06-10T03:38:42;99310.13;;;12.46;100.00
79067;BME280;68470;50.224;14.348;2023-06-10T03:41:07;99312.31;;;12.49;100.00
79067;BME280;68470;50.224;14.348;2023-06-10T03:43:33;99321.91;;;12.72;100.00
79067;BME280;68470;50.224;14.348;2023-06-10T03:45:59;99311.41;;;12.74;100.00
79067;BME280;68470;50.224;14.348;2023-06-10T03:48:25;99316.09;;;12.73;100.00
79067;BME280;68470;50.224;14.348;2023-06-10T03:50:51;99320.78;;;12.83;100.00
79067;BME280;68470;50.224;14.348;2023-06-10T03:53:18;99321.56;;;12.93;100.00
79067;BME280;68470;50.224;14.348;2023-06-10T03:55:44;99323.16;;;13.05;100.00
79067;BME280;68470;50.224;14.348;2023-06-10T03:58:11;99332.06;;;12.97;100.00
79067;BME280;68470;50.224;14.348;2023-06-10T04:00:39;99332.50;;;13.29;100.00
79067;BME280;68470;50.224;14.348;2023-06-10T04:03:08;99330.84;;;13.23;100.00
79067;BME280;68470;50.224;14.348;2023-06-10T04:05:41;99330.81;;;13.33;100.00
79067;BME280;68470;50.224;14.348;2023-06-10T04:08:08;99334.03;;;13.50;100.00
79067;BME280;68470;50.224;14.348;2023-06-10T04:10:34;99332.72;;;13.82;100.00
79067;BME280;68470;50.224;14.348;2023-06-10T04:13:00;99339.94;;;14.12;100.00
79067;BME280;68470;50.224;14.348;2023-06-10T04:15:26;99345.47;;;14.46;98.40
79067;BME280;68470;50.224;14.348;2023-06-10T04:17:52;99349.69;;;14.67;96.36
79067;BME280;68470;50.224;14.348;2023-06-10T04:20:18;99341.69;;;14.61;97.02
79067;BME280;68470;50.224;14.348;2023-06-10T04:22:44;99348.03;;;14.90;96.08
79067;BME280;68470;50.224;14.348;2023-06-10T04:25:09;99348.06;;;15.33;95.31
79067;BME280;68470;50.224;14.348;2023-06-10T04:27:35;99354.69;;;15.56;93.57
79067;BME280;68470;50.224;14.348;2023-06-10T04:30:03;99359.06;;;16.00;92.35
79067;BME280;68470;50.224;14.348;2023-06-10T04:32:29;99357.06;;;16.51;91.75
79067;BME280;68470;50.224;14.348;2023-06-10T04:34:55;99343.06;;;17.03;87.55
79067;BME280;68470;50.224;14.348;2023-06-10T04:37:21;99354.38;;;17.34;85.59
79067;BME280;68470;50.224;14.348;2023-06-10T04:39:47;99349.44;;;17.31;84.41
79067;BME280;68470;50.224;14.348;2023-06-10T04:42:13;99365.25;;;17.71;84.39
79067;BME280;68470;50.224;14.348;2023-06-10T04:44:39;99344.56;;;18.00;80.39
79067;BME280;68470;50.224;14.348;2023-06-10T04:47:07;99353.00;;;17.95;79.32
79067;BME280;68470;50.224;14.348;2023-06-10T04:49:36;99351.81;;;17.87;78.99
79067;BME280;68470;50.224;14.348;2023-06-10T04:52:02;99353.28;;;17.85;81.00
79067;BME280;68470;50.224;14.348;2023-06-10T04:54:30;99352.03;;;18.36;77.10
79067;BME280;68470;50.224;14.348;2023-06-10T04:56:56;99352.25;;;18.70;77.21
79067;BME280;68470;50.224;14.348;2023-06-10T04:59:21;99351.75;;;18.99;75.18
79067;BME280;68470;50.224;14.348;2023-06-10T05:01:48;99349.16;;;18.72;76.00
79067;BME280;68470;50.224;14.348;2023-06-10T05:04:14;99354.66;;;19.42;75.46
79067;BME280;68470;50.224;14.348;2023-06-10T05:06:40;99355.09;;;19.75;72.39
79067;BME280;68470;50.224;14.348;2023-06-10T05:09:06;99345.91;;;20.01;71.14
79067;BME280;68470;50.224;14.348;2023-06-10T05:11:32;99337.66;;;20.13;70.95
79067;BME280;68470;50.224;14.348;2023-06-10T05:13:57;99346.69;;;20.36;69.12
79067;BME280;68470;50.224;14.348;2023-06-10T05:16:24;99353.78;;;20.33;69.49
79067;BME280;68470;50.224;14.348;2023-06-10T05:18:49;99362.31;;;20.46;69.94
79067;BME280;68470;50.224;14.348;2023-06-10T05:21:17;99355.56;;;20.29;70.29
79067;BME280;68470;50.224;14.348;2023-06-10T05:23:42;99352.59;;;19.57;73.84
79067;BME280;68470;50.224;14.348;2023-06-10T05:26:08;99359.84;;;20.44;71.45
79067;BME280;68470;50.224;14.348;2023-06-10T05:28:34;99357.84;;;21.47;67.31
79067;BME280;68470;50.224;14.348;2023-06-10T05:30:59;99359.22;;;21.70;65.75
79067;BME280;68470;50.224;14.348;2023-06-10T05:33:25;99363.88;;;21.28;66.70
79067;BME280;68470;50.224;14.348;2023-06-10T05:35:51;99368.44;;;21.03;67.21
79067;BME280;68470;50.224;14.348;2023-06-10T05:38:16;99368.59;;;22.16;64.46
79067;BME280;68470;50.224;14.348;2023-06-10T05:40:42;99352.78;;;23.10;60.62
79067;BME280;68470;50.224;14.348;2023-06-10T05:43:08;99361.72;;;21.63;64.50
79067;BME280;68470;50.224;14.348;2023-06-10T05:45:35;99360.97;;;21.54;65.03
79067;BME280;68470;50.224;14.348;2023-06-10T05:48:00;99369.03;;;21.17;66.41
79067;BME280;68470;50.224;14.348;2023-06-10T05:50:26;99361.50;;;20.10;70.36
79067;BME280;68470;50.224;14.348;2023-06-10T05:52:52;99376.22;;;21.36;66.62
79067;BME280;68470;50.224;14.348;2023-06-10T05:55:19;99365.69;;;21.24;65.20
79067;BME280;68470;50.224;14.348;2023-06-10T05:57:45;99373.34;;;21.95;63.44
79067;BME280;68470;50.224;14.348;2023-06-10T06:00:11;99356.72;;;22.97;60.16
79067;BME280;68470;50.224;14.348;2023-06-10T06:02:37;99364.91;;;22.24;61.69
79067;BME280;68470;50.224;14.348;2023-06-10T06:05:03;99369.50;;;21.57;63.07
79067;BME280;68470;50.224;14.348;2023-06-10T06:07:29;99367.34;;;20.87;66.66
79067;BME280;68470;50.224;14.348;2023-06-10T06:09:55;99366.53;;;20.78;66.09
79067;BME280;68470;50.224;14.348;2023-06-10T06:12:21;99375.97;;;20.47;67.41
79067;BME280;68470;50.224;14.348;2023-06-10T06:14:47;99372.69;;;20.45;68.63
79067;BME280;68470;50.224;14.348;2023-06-10T06:17:14;99373.97;;;20.39;68.54
79067;BME280;68470;50.224;14.348;2023-06-10T06:19:40;99369.34;;;20.69;67.59
79067;BME280;68470;50.224;14.348;2023-06-10T06:22:06;99383.06;;;21.47;65.18
79067;BME280;68470;50.224;14.348;2023-06-10T06:24:32;99376.97;;;21.74;64.78
79067;BME280;68470;50.224;14.348;2023-06-10T06:26:58;99378.53;;;21.34;64.82
79067;BME280;68470;50.224;14.348;2023-06-10T06:29:24;99380.34;;;21.29;65.57
79067;BME280;68470;50.224;14.348;2023-06-10T06:31:49;99383.63;;;22.86;60.09
79067;BME280;68470;50.224;14.348;2023-06-10T06:34:15;99382.97;;;22.35;60.61
79067;BME280;68470;50.224;14.348;2023-06-10T06:36:41;99387.72;;;22.14;61.83
79067;BME280;68470;50.224;14.348;2023-06-10T06:39:07;99380.00;;;22.32;61.44
79067;BME280;68470;50.224;14.348;2023-06-10T06:41:32;99389.25;;;22.86;60.58
79067;BME280;68470;50.224;14.348;2023-06-10T06:43:58;99380.19;;;23.38;58.63
79067;BME280;68470;50.224;14.348;2023-06-10T06:46:24;99382.72;;;24.04;56.20
79067;BME280;68470;50.224;14.348;2023-06-10T06:48:50;99379.50;;;24.58;54.52
79067;BME280;68470;50.224;14.348;2023-06-10T06:51:16;99394.44;;;24.74;54.74
79067;BME280;68470;50.224;14.348;2023-06-10T06:53:41;99387.66;;;23.22;57.93
79067;BME280;68470;50.224;14.348;2023-06-10T06:56:11;99388.38;;;23.43;56.32
79067;BME280;68470;50.224;14.348;2023-06-10T06:58:37;99394.19;;;23.50;56.90
79067;BME280;68470;50.224;14.348;2023-06-10T07:01:03;99397.72;;;23.23;57.29
79067;BME280;68470;50.224;14.348;2023-06-10T07:03:29;99398.69;;;23.63;57.19
79067;BME280;68470;50.224;14.348;2023-06-10T07:05:55;99401.47;;;23.39;56.89
79067;BME280;68470;50.224;14.348;2023-06-10T07:08:21;99403.91;;;21.87;61.18
79067;BME280;68470;50.224;14.348;2023-06-10T07:10:46;99392.66;;;22.17;60.84
79067;BME280;68470;50.224;14.348;2023-06-10T07:13:12;99396.38;;;22.63;58.55
79067;BME280;68470;50.224;14.348;2023-06-10T07:15:38;99405.38;;;22.89;58.10
79067;BME280;68470;50.224;14.348;2023-06-10T07:18:04;99408.00;;;23.31;58.62
79067;BME280;68470;50.224;14.348;2023-06-10T07:20:30;99413.13;;;22.50;59.77
79067;BME280;68470;50.224;14.348;2023-06-10T07:22:56;99418.94;;;22.87;59.76
79067;BME280;68470;50.224;14.348;2023-06-10T07:25:21;99408.66;;;22.91;59.48
79067;BME280;68470;50.224;14.348;2023-06-10T07:27:47;99406.84;;;23.20;58.20
79067;BME280;68470;50.224;14.348;2023-06-10T07:30:13;99411.66;;;22.53;59.55
79067;BME280;68470;50.224;14.348;2023-06-10T07:32:39;99411.00;;;22.89;59.11
79067;BME280;68470;50.224;14.348;2023-06-10T07:35:08;99407.66;;;23.20;57.42
79067;BME280;68470;50.224;14.348;2023-06-10T07:37:35;99420.34;;;22.93;58.17
79067;BME280;68470;50.224;14.348;2023-06-10T07:40:00;99416.28;;;23.15;57.21
79067;BME280;68470;50.224;14.348;2023-06-10T07:42:26;99415.75;;;23.46;56.50
79067;BME280;68470;50.224;14.348;2023-06-10T07:44:52;99431.16;;;23.03;57.49
79067;BME280;68470;50.224;14.348;2023-06-10T07:47:18;99434.13;;;22.86;57.27
79067;BME280;68470;50.224;14.348;2023-06-10T07:49:44;99427.63;;;22.73;58.48
79067;BME280;68470;50.224;14.348;2023-06-10T07:52:10;99431.06;;;23.24;57.47
79067;BME280;68470;50.224;14.348;2023-06-10T07:54:35;99425.72;;;22.86;57.40
79067;BME280;68470;50.224;14.348;2023-06-10T07:57:01;99427.78;;;23.22;57.02
79067;BME280;68470;50.224;14.348;2023-06-10T07:59:27;99426.16;;;23.33;56.59
79067;BME280;68470;50.224;14.348;2023-06-10T08:01:53;99428.06;;;22.96;58.55
79067;BME280;68470;50.224;14.348;2023-06-10T08:04:18;99426.50;;;23.20;57.05
79067;BME280;68470;50.224;14.348;2023-06-10T08:06:44;99435.91;;;23.73;55.63
79067;BME280;68470;50.224;14.348;2023-06-10T08:09:10;99440.78;;;23.51;56.29
79067;BME280;68470;50.224;14.348;2023-06-10T08:11:36;99435.31;;;25.43;51.64
79067;BME280;68470;50.224;14.348;2023-06-10T08:14:02;99436.66;;;25.97;50.09
79067;BME280;68470;50.224;14.348;2023-06-10T08:16:27;99446.97;;;25.58;50.11
79067;BME280;68470;50.224;14.348;2023-06-10T08:18:55;99441.84;;;25.16;50.41
79067;BME280;68470;50.224;14.348;2023-06-10T08:21:21;99447.59;;;25.19;52.10
79067;BME280;68470;50.224;14.348;2023-06-10T08:23:47;99450.22;;;25.60;51.27
79067;BME280;68470;50.224;14.348;2023-06-10T08:26:13;99442.78;;;24.12;53.43
79067;BME280;68470;50.224;14.348;2023-06-10T08:28:39;99447.63;;;23.87;54.17
79067;BME280;68470;50.224;14.348;2023-06-10T08:31:05;99453.00;;;24.04;54.45
79067;BME280;68470;50.224;14.348;2023-06-10T08:33:30;99445.13;;;24.62;52.37
79067;BME280;68470;50.224;14.348;2023-06-10T08:35:56;99442.94;;;24.99;51.04
79067;BME280;68470;50.224;14.348;2023-06-10T08:38:22;99441.66;;;25.09;48.71
79067;BME280;68470;50.224;14.348;2023-06-10T08:40:48;99440.75;;;25.05;49.52
79067;BME280;68470;50.224;14.348;2023-06-10T08:43:43;99440.31;;;24.90;50.40
79067;BME280;68470;50.224;14.348;2023-06-10T08:46:10;99439.78;;;24.45;52.64
79067;BME280;68470;50.224;14.348;2023-06-10T08:48:42;99440.59;;;23.81;52.83
79067;BME280;68470;50.224;14.348;2023-06-10T08:51:10;99436.78;;;24.25;53.14
79067;BME280;68470;50.224;14.348;2023-06-10T08:53:38;99435.28;;;24.84;50.14
79067;BME280;68470;50.224;14.348;2023-06-10T08:56:09;99444.41;;;24.13;52.65
79067;BME280;68470;50.224;14.348;2023-06-10T08:58:35;99443.69;;;24.16;51.94
79067;BME280;68470;50.224;14.348;2023-06-10T09:01:10;99440.97;;;24.44;50.85
79067;BME280;68470;50.224;14.348;2023-06-10T09:03:37;99433.38;;;24.32;52.00
79067;BME280;68470;50.224;14.348;2023-06-10T09:06:04;99434.78;;;24.38;51.35
79067;BME280;68470;50.224;14.348;2023-06-10T09:08:31;99430.88;;;23.78;53.45
79067;BME280;68470;50.224;14.348;2023-06-10T09:10:58;99440.38;;;23.61;53.57
79067;BME280;68470;50.224;14.348;2023-06-10T09:13:24;99443.22;;;22.83;56.77
79067;BME280;68470;50.224;14.348;2023-06-10T09:15:50;99451.81;;;22.24;58.22
79067;BME280;68470;50.224;14.348;2023-06-10T09:18:16;99450.25;;;22.35;58.64
79067;BME280;68470;50.224;14.348;2023-06-10T09:20:43;99454.56;;;22.54;57.94
79067;BME280;68470;50.224;14.348;2023-06-10T09:23:09;99454.91;;;22.52;58.53
79067;BME280;68470;50.224;14.348;2023-06-10T09:25:37;99455.13;;;22.80;58.45
79067;BME280;68470;50.224;14.348;2023-06-10T09:28:03;99457.78;;;22.76;61.82
79067;BME280;68470;50.224;14.348;2023-06-10T09:30:31;99463.75;;;21.53;63.14
79067;BME280;68470;50.224;14.348;2023-06-10T09:33:00;99470.16;;;20.21;70.15
79067;BME280;68470;50.224;14.348;2023-06-10T09:35:28;99466.84;;;20.01;70.00
79067;BME280;68470;50.224;14.348;2023-06-10T09:37:56;99470.63;;;20.05;77.38
79067;BME280;68470;50.224;14.348;2023-06-10T09:40:23;99462.38;;;19.83;78.19
79067;BME280;68470;50.224;14.348;2023-06-10T09:42:57;99469.19;;;20.25;76.48
79067;BME280;68470;50.224;14.348;2023-06-10T09:45:29;99464.78;;;20.50;74.78
79067;BME280;68470;50.224;14.348;2023-06-10T09:47:56;99466.09;;;20.70;76.08
79067;BME280;68470;50.224;14.348;2023-06-10T09:50:22;99462.59;;;20.82;74.00
79067;BME280;68470;50.224;14.348;2023-06-10T09:52:50;99470.34;;;20.16;75.39
79067;BME280;68470;50.224;14.348;2023-06-10T09:55:16;99479.22;;;20.18;76.71
79067;BME280;68470;50.224;14.348;2023-06-10T09:57:43;99467.84;;;20.31;72.38
79067;BME280;68470;50.224;14.348;2023-06-10T10:00:14;99473.00;;;20.47;75.16
79067;BME280;68470;50.224;14.348;2023-06-10T10:02:50;99477.13;;;20.49;74.18
79067;BME280;68470;50.224;14.348;2023-06-10T10:05:18;99476.28;;;20.49;75.05
79067;BME280;68470;50.224;14.348;2023-06-10T10:07:45;99478.75;;;20.76;72.67
79067;BME280;68470;50.224;14.348;2023-06-10T10:10:12;99466.56;;;20.63;72.88
79067;BME280;68470;50.224;14.348;2023-06-10T10:12:39;99473.72;;;21.16;72.61
79067;BME280;68470;50.224;14.348;2023-06-10T10:15:10;99471.53;;;21.77;70.96
79067;BME280;68470;50.224;14.348;2023-06-10T10:18:09;99475.63;;;22.18;65.28
79067;BME280;68470;50.224;14.348;2023-06-10T10:21:12;99466.88;;;22.40;69.46
79067;BME280;68470;50.224;14.348;2023-06-10T10:24:01;99465.34;;;21.92;68.26
79067;BME280;68470;50.224;14.348;2023-06-10T10:26:29;99461.28;;;21.81;67.75
79067;BME280;68470;50.224;14.348;2023-06-10T10:29:23;99457.34;;;21.53;70.82
79067;BME280;68470;50.224;14.348;2023-06-10T10:31:51;99457.63;;;21.89;70.51
79067;BME280;68470;50.224;14.348;2023-06-10T10:34:39;99451.34;;;22.22;65.88
79067;BME280;68470;50.224;14.348;2023-06-10T10:37:08;99460.50;;;22.52;63.93
79067;BME280;68470;50.224;14.348;2023-06-10T10:39:35;99452.53;;;22.75;64.56
79067;BME280;68470;50.224;14.348;2023-06-10T10:42:03;99426.16;;;22.55;63.89
79067;BME280;68470;50.224;14.348;2023-06-10T10:44:30;99453.94;;;21.98;67.41
79067;BME280;68470;50.224;14.348;2023-06-10T10:47:02;99456.00;;;22.39;66.00
79067;BME280;68470;50.224;14.348;2023-06-10T10:49:30;99437.88;;;22.36;65.41
79067;BME280;68470;50.224;14.348;2023-06-10T10:52:02;99440.78;;;22.61;64.15
79067;BME280;68470;50.224;14.348;2023-06-10T10:54:33;99445.25;;;23.40;62.75
79067;BME280;68470;50.224;14.348;2023-06-10T11:02:37;99446.41;;;25.52;52.67
79067;BME280;68470;50.224;14.348;2023-06-10T11:05:06;99448.31;;;25.79;54.17
79067;BME280;68470;50.224;14.348;2023-06-10T11:07:33;99439.84;;;25.64;53.30
79067;BME280;68470;50.224;14.348;2023-06-10T11:10:12;99449.16;;;26.50;51.00
79067;BME280;68470;50.224;14.348;2023-06-10T11:15:11;99435.34;;;30.72;39.16
79067;BME280;68470;50.224;14.348;2023-06-10T11:20:51;99432.28;;;28.93;41.91
79067;BME280;68470;50.224;14.348;2023-06-10T11:26:18;99425.69;;;25.44;48.82
79067;BME280;68470;50.224;14.348;2023-06-10T11:33:48;99415.97;;;27.47;45.05
79067;BME280;68470;50.224;14.348;2023-06-10T11:36:14;99410.25;;;27.67;44.76
79067;BME280;68470;50.224;14.348;2023-06-10T11:38:41;99405.97;;;28.93;40.43
79067;BME280;68470;50.224;14.348;2023-06-10T11:41:08;99408.41;;;28.61;41.78
79067;BME280;68470;50.224;14.348;2023-06-10T11:43:34;99398.69;;;29.36;39.77
79067;BME280;68470;50.224;14.348;2023-06-10T11:46:00;99402.59;;;30.16;39.40
79067;BME280;68470;50.224;14.348;2023-06-10T11:48:27;99396.50;;;30.18;39.18
79067;BME280;68470;50.224;14.348;2023-06-10T11:50:56;99402.63;;;31.28;36.58
79067;BME280;68470;50.224;14.348;2023-06-10T11:53:23;99398.69;;;30.53;38.55
79067;BME280;68470;50.224;14.348;2023-06-10T11:55:50;99385.41;;;28.36;42.22
79067;BME280;68470;50.224;14.348;2023-06-10T11:58:21;99386.16;;;27.27;45.67
79067;BME280;68470;50.224;14.348;2023-06-10T12:00:49;99391.97;;;26.53;47.16
79067;BME280;68470;50.224;14.348;2023-06-10T12:03:16;99375.69;;;26.27;47.80
79067;BME280;68470;50.224;14.348;2023-06-10T12:06:02;99392.03;;;25.83;47.73
79067;BME280;68470;50.224;14.348;2023-06-10T12:08:29;99379.34;;;26.47;46.80
79067;BME280;68470;50.224;14.348;2023-06-10T12:10:55;99368.00;;;27.05;45.50
79067;BME280;68470;50.224;14.348;2023-06-10T12:13:23;99370.69;;;28.23;43.61
79067;BME280;68470;50.224;14.348;2023-06-10T12:15:51;99377.09;;;27.90;45.17
79067;BME280;68470;50.224;14.348;2023-06-10T12:18:24;99376.03;;;28.02;43.25
79067;BME280;68470;50.224;14.348;2023-06-10T12:20:50;99366.38;;;30.03;39.60
79067;BME280;68470;50.224;14.348;2023-06-10T12:23:17;99367.66;;;29.50;39.69
79067;BME280;68470;50.224;14.348;2023-06-10T12:25:54;99365.59;;;31.07;36.76
79067;BME280;68470;50.224;14.348;2023-06-10T12:28:24;99359.56;;;31.19;37.11
79067;BME280;68470;50.224;14.348;2023-06-10T12:30:50;99350.22;;;31.79;35.48
79067;BME280;68470;50.224;14.348;2023-06-10T12:33:20;99352.66;;;31.20;36.36
79067;BME280;68470;50.224;14.348;2023-06-10T12:35:51;99350.16;;;32.11;34.28
79067;BME280;68470;50.224;14.348;2023-06-10T12:38:24;99341.63;;;32.00;35.40
79067;BME280;68470;50.224;14.348;2023-06-10T12:40:53;99338.66;;;30.47;36.17
79067;BME280;68470;50.224;14.348;2023-06-10T12:43:27;99334.69;;;30.66;36.32
79067;BME280;68470;50.224;14.348;2023-06-10T12:45:53;99320.38;;;32.37;33.82
79067;BME280;68470;50.224;14.348;2023-06-10T12:48:22;99339.22;;;31.17;34.95
79067;BME280;68470;50.224;14.348;2023-06-10T12:50:58;99340.84;;;30.03;37.30
79067;BME280;68470;50.224;14.348;2023-06-10T12:53:24;99332.22;;;26.71;43.73
79067;BME280;68470;50.224;14.348;2023-06-10T12:55:52;99345.19;;;24.52;48.28
79067;BME280;68470;50.224;14.348;2023-06-10T12:58:21;99349.91;;;23.96;52.15
79067;BME280;68470;50.224;14.348;2023-06-10T13:00:47;99349.19;;;22.77;57.55
79067;BME280;68470;50.224;14.348;2023-06-10T13:03:14;99329.25;;;21.83;62.57
79067;BME280;68470;50.224;14.348;2023-06-10T13:05:41;99336.31;;;21.68;64.05
79067;BME280;68470;50.224;14.348;2023-06-10T13:08:08;99333.91;;;22.41;66.15
79067;BME280;68470;50.224;14.348;2023-06-10T13:10:35;99332.25;;;22.07;61.14